createdAt,value
2019-06-15T00:00:27.941Z,4.80
2019-06-15T00:00:29.716Z,4.20
2019-06-15T00:01:29.719Z,4.80
2019-06-15T00:02:29.790Z,4.20
2019-06-15T00:02:57.456Z,5.10
2019-06-15T00:03:29.747Z,4.70
2019-06-15T00:04:29.767Z,4.90
2019-06-15T00:05:26.866Z,5.30
2019-06-15T00:05:29.788Z,4.70
2019-06-15T00:06:29.816Z,5.00
2019-06-15T00:07:29.819Z,4.50
2019-06-15T00:07:56.180Z,5.30
2019-06-15T00:08:29.835Z,4.40
2019-06-15T00:09:29.862Z,4.90
2019-06-15T00:10:25.348Z,5.00
2019-06-15T00:10:29.875Z,4.80
2019-06-15T00:11:29.898Z,4.90
2019-06-15T00:12:29.917Z,4.70
2019-06-15T00:12:54.553Z,5.37
2019-06-15T00:13:29.949Z,4.70
2019-06-15T00:14:29.984Z,4.80
2019-06-15T00:15:23.951Z,5.40
2019-06-15T00:15:29.993Z,4.60
2019-06-15T00:16:30.006Z,4.50
2019-06-15T00:17:30.013Z,5.20
2019-06-15T00:17:52.944Z,5.37
2019-06-15T00:18:30.032Z,4.70
2019-06-15T00:19:30.060Z,4.80
2019-06-15T00:20:22.142Z,4.97
2019-06-15T00:20:30.072Z,4.90
2019-06-15T00:21:30.094Z,4.90
2019-06-15T00:22:30.116Z,4.60
2019-06-15T00:22:50.985Z,5.23
2019-06-15T00:23:30.132Z,4.60
2019-06-15T00:24:35.253Z,4.40
2019-06-15T00:25:20.439Z,5.40
2019-06-15T00:25:30.235Z,4.80
2019-06-15T00:26:30.210Z,4.80
2019-06-15T00:27:30.222Z,4.60
2019-06-15T00:27:49.380Z,4.63
2019-06-15T00:28:30.236Z,4.50
2019-06-15T00:29:30.262Z,4.10
2019-06-15T00:30:18.677Z,4.70
2019-06-15T00:30:30.270Z,4.20
2019-06-15T00:31:30.307Z,4.60
2019-06-15T00:32:30.319Z,4.60
2019-06-15T00:32:48.215Z,4.50
2019-06-15T00:33:30.335Z,4.60
2019-06-15T00:34:30.362Z,4.30
2019-06-15T00:35:17.488Z,5.17
2019-06-15T00:35:30.372Z,4.90
2019-06-15T00:36:30.395Z,4.40
2019-06-15T00:37:30.432Z,4.50
2019-06-15T00:37:46.929Z,4.87
2019-06-15T00:38:30.432Z,4.80
2019-06-15T00:39:30.456Z,4.60
2019-06-15T00:40:16.410Z,4.80
2019-06-15T00:40:30.476Z,4.70
2019-06-15T00:41:30.504Z,4.90
2019-06-15T00:42:30.535Z,4.70
2019-06-15T00:42:45.507Z,5.03
2019-06-15T00:43:30.533Z,4.60
2019-06-15T00:44:30.547Z,4.20
2019-06-15T00:45:14.800Z,4.30
2019-06-15T00:45:30.581Z,4.60
2019-06-15T00:46:30.645Z,4.90
2019-06-15T00:47:30.606Z,4.50
2019-06-15T00:47:43.898Z,4.70
2019-06-15T00:48:30.696Z,4.60
2019-06-15T00:49:30.654Z,4.50
2019-06-15T00:50:13.696Z,4.87
2019-06-15T00:50:30.671Z,4.80
2019-06-15T00:51:30.688Z,4.40
2019-06-15T00:52:30.706Z,4.60
2019-06-15T00:52:42.577Z,5.30
2019-06-15T00:53:30.725Z,4.20
2019-06-15T00:54:30.765Z,4.40
2019-06-15T00:55:11.672Z,4.97
2019-06-15T00:55:30.769Z,4.90
2019-06-15T00:56:30.786Z,4.60
2019-06-15T00:57:30.810Z,4.70
2019-06-15T00:57:40.664Z,5.00
2019-06-15T00:58:30.828Z,4.50
2019-06-15T00:59:30.850Z,4.70
2019-06-15T01:00:10.578Z,4.43
2019-06-15T01:00:30.869Z,4.50
2019-06-15T01:01:30.890Z,4.80
2019-06-15T01:02:30.903Z,5.10
2019-06-15T01:02:39.673Z,3.80
2019-06-15T01:03:30.925Z,4.20
2019-06-15T01:04:30.955Z,3.60
2019-06-15T01:05:08.869Z,3.77
2019-06-15T01:05:30.965Z,3.60
2019-06-15T01:06:31.046Z,3.60
2019-06-15T01:07:31.009Z,4.20
2019-06-15T01:07:37.753Z,3.70
2019-06-15T01:08:31.166Z,4.30
2019-06-15T01:09:31.045Z,4.10
2019-06-15T01:10:06.971Z,4.47
2019-06-15T01:10:31.067Z,4.20
2019-06-15T01:11:31.085Z,4.60
2019-06-15T01:12:31.231Z,4.70
2019-06-15T01:12:35.963Z,4.90
2019-06-15T01:13:31.141Z,4.50
2019-06-15T01:14:31.267Z,4.90
2019-06-15T01:15:05.526Z,4.83
2019-06-15T01:15:31.171Z,4.60
2019-06-15T01:16:31.188Z,4.60
2019-06-15T01:17:31.205Z,4.50
2019-06-15T01:17:34.870Z,4.47
2019-06-15T01:18:31.221Z,4.90
2019-06-15T01:19:31.241Z,4.40
2019-06-15T01:20:03.915Z,4.40
2019-06-15T01:20:31.263Z,4.30
2019-06-15T01:21:31.286Z,4.70
2019-06-15T01:22:31.300Z,5.00
2019-06-15T01:22:33.247Z,3.97
2019-06-15T01:23:31.338Z,4.50
2019-06-15T01:24:31.350Z,4.60
2019-06-15T01:25:05.711Z,4.83
2019-06-15T01:25:31.369Z,4.90
2019-06-15T01:26:31.389Z,5.10
2019-06-15T01:27:31.408Z,4.50
2019-06-15T01:27:33.185Z,5.27
2019-06-15T01:28:31.433Z,5.10
2019-06-15T01:29:31.450Z,5.20
2019-06-15T01:30:02.292Z,4.80
2019-06-15T01:30:31.465Z,5.30
2019-06-15T01:31:31.487Z,5.30
2019-06-15T01:32:31.283Z,4.90
2019-06-15T01:32:31.507Z,5.00
2019-06-15T01:33:31.531Z,5.80
2019-06-15T01:34:31.587Z,4.70
2019-06-15T01:35:00.259Z,5.60
2019-06-15T01:35:31.565Z,5.30
2019-06-15T01:36:31.583Z,4.90
2019-06-15T01:37:29.264Z,5.43
2019-06-15T01:37:31.606Z,5.00
2019-06-15T01:38:31.624Z,5.50
2019-06-15T01:39:31.655Z,5.20
2019-06-15T01:39:58.138Z,5.27
2019-06-15T01:40:31.665Z,5.10
2019-06-15T01:41:31.689Z,5.30
2019-06-15T01:42:27.129Z,5.73
2019-06-15T01:42:31.707Z,5.30
2019-06-15T01:43:31.733Z,5.10
2019-06-15T01:44:31.747Z,5.00
2019-06-15T01:44:56.014Z,5.17
2019-06-15T01:45:31.767Z,5.10
2019-06-15T01:46:31.794Z,4.80
2019-06-15T01:47:24.907Z,3.93
2019-06-15T01:47:31.811Z,4.10
2019-06-15T01:48:31.822Z,4.20
2019-06-15T01:49:31.845Z,4.10
2019-06-15T01:49:53.751Z,4.37
2019-06-15T01:50:31.868Z,4.30
2019-06-15T01:51:31.883Z,4.20
2019-06-15T01:52:22.686Z,4.37
2019-06-15T01:52:31.903Z,4.20
2019-06-15T01:53:31.927Z,4.40
2019-06-15T01:54:31.943Z,4.20
2019-06-15T01:54:52.048Z,4.47
2019-06-15T01:55:32.018Z,4.50
2019-06-15T01:56:32.174Z,3.90
2019-06-15T01:57:21.210Z,3.90
2019-06-15T01:57:32.104Z,4.30
2019-06-15T01:58:32.027Z,4.40
2019-06-15T01:59:32.043Z,4.10
2019-06-15T01:59:50.293Z,4.07
2019-06-15T02:00:32.062Z,4.70
2019-06-15T02:01:32.082Z,4.10
2019-06-15T02:02:19.375Z,4.40
2019-06-15T02:02:32.107Z,4.30
2019-06-15T02:03:32.126Z,4.90
2019-06-15T02:04:32.145Z,4.70
2019-06-15T02:04:48.278Z,4.73
2019-06-15T02:05:32.161Z,4.30
2019-06-15T02:06:32.183Z,4.10
2019-06-15T02:07:17.270Z,4.40
2019-06-15T02:07:32.212Z,4.60
2019-06-15T02:08:32.225Z,4.40
2019-06-15T02:09:32.243Z,4.30
2019-06-15T02:09:46.147Z,4.73
2019-06-15T02:10:32.264Z,5.20
2019-06-15T02:11:32.288Z,4.40
2019-06-15T02:12:15.035Z,4.77
2019-06-15T02:12:32.351Z,5.10
2019-06-15T02:13:32.324Z,4.60
2019-06-15T02:14:32.343Z,4.60
2019-06-15T02:14:43.887Z,4.80
2019-06-15T02:15:32.362Z,4.80
2019-06-15T02:16:32.393Z,4.80
2019-06-15T02:17:12.933Z,5.00
2019-06-15T02:17:32.417Z,4.20
2019-06-15T02:18:32.421Z,4.70
2019-06-15T02:19:32.445Z,4.50
2019-06-15T02:19:41.907Z,5.03
2019-06-15T02:20:32.462Z,4.60
2019-06-15T02:21:32.481Z,4.50
2019-06-15T02:22:10.899Z,4.67
2019-06-15T02:22:32.528Z,4.40
2019-06-15T02:23:32.520Z,5.00
2019-06-15T02:24:32.539Z,4.50
2019-06-15T02:24:39.748Z,5.20
2019-06-15T02:25:36.202Z,5.30
2019-06-15T02:26:32.584Z,5.00
2019-06-15T02:27:08.797Z,5.80
2019-06-15T02:27:32.606Z,5.10
2019-06-15T02:28:32.648Z,5.10
2019-06-15T02:29:32.643Z,5.00
2019-06-15T02:29:37.676Z,4.90
2019-06-15T02:30:32.683Z,5.40
2019-06-15T02:31:32.684Z,5.10
2019-06-15T02:32:06.678Z,5.37
2019-06-15T02:32:32.703Z,4.60
2019-06-15T02:33:32.754Z,4.60
2019-06-15T02:34:32.738Z,5.20
2019-06-15T02:34:35.619Z,5.40
2019-06-15T02:35:32.764Z,5.90
2019-06-15T02:36:32.779Z,5.20
2019-06-15T02:37:04.804Z,5.50
2019-06-15T02:37:32.803Z,6.00
2019-06-15T02:38:32.825Z,5.60
2019-06-15T02:39:32.839Z,5.30
2019-06-15T02:39:33.658Z,5.57
2019-06-15T02:40:32.860Z,5.30
2019-06-15T02:41:32.886Z,5.50
2019-06-15T02:42:02.650Z,5.70
2019-06-15T02:42:32.899Z,5.40
2019-06-15T02:43:32.921Z,5.30
2019-06-15T02:44:31.519Z,5.43
2019-06-15T02:44:32.970Z,5.80
2019-06-15T02:45:33.025Z,5.80
2019-06-15T02:46:32.991Z,5.80
2019-06-15T02:47:00.421Z,5.90
2019-06-15T02:47:32.999Z,5.30
2019-06-15T02:48:33.022Z,5.40
2019-06-15T02:49:29.520Z,5.40
2019-06-15T02:49:33.045Z,5.60
2019-06-15T02:50:33.063Z,5.60
2019-06-15T02:51:33.088Z,5.40
2019-06-15T02:51:58.391Z,5.43
2019-06-15T02:52:33.106Z,5.80
2019-06-15T02:53:33.122Z,4.90
2019-06-15T02:54:27.285Z,5.47
2019-06-15T02:54:33.146Z,5.50
2019-06-15T02:55:33.173Z,4.80
2019-06-15T02:56:33.182Z,5.80
2019-06-15T02:56:56.290Z,5.00
2019-06-15T02:57:33.206Z,4.90
2019-06-15T02:58:33.225Z,5.00
2019-06-15T02:59:25.285Z,5.30
2019-06-15T02:59:33.247Z,5.20
2019-06-15T03:00:33.262Z,5.70
2019-06-15T03:01:33.292Z,5.00
2019-06-15T03:01:54.480Z,5.27
2019-06-15T03:02:33.407Z,5.00
2019-06-15T03:03:33.322Z,5.70
2019-06-15T03:04:23.425Z,5.20
2019-06-15T03:04:33.380Z,5.20
2019-06-15T03:05:33.364Z,6.30
2019-06-15T03:06:33.383Z,5.80
2019-06-15T03:06:52.656Z,5.50
2019-06-15T03:07:33.407Z,5.90
2019-06-15T03:08:33.425Z,5.50
2019-06-15T03:09:21.666Z,5.80
2019-06-15T03:09:33.450Z,5.80
2019-06-15T03:10:33.467Z,5.40
2019-06-15T03:11:33.486Z,5.50
2019-06-15T03:11:50.654Z,5.20
2019-06-15T03:12:33.528Z,5.60
2019-06-15T03:13:33.524Z,5.60
2019-06-15T03:14:19.632Z,6.00
2019-06-15T03:14:33.546Z,5.70
2019-06-15T03:15:33.569Z,5.40
2019-06-15T03:16:33.585Z,6.10
2019-06-15T03:16:48.626Z,6.33
2019-06-15T03:17:33.607Z,5.70
2019-06-15T03:18:33.633Z,6.00
2019-06-15T03:19:17.630Z,6.27
2019-06-15T03:19:33.648Z,5.90
2019-06-15T03:20:33.692Z,5.70
2019-06-15T03:21:33.783Z,6.30
2019-06-15T03:21:46.506Z,6.23
2019-06-15T03:22:33.758Z,6.10
2019-06-15T03:23:33.725Z,5.90
2019-06-15T03:24:15.514Z,6.47
2019-06-15T03:24:33.747Z,6.40
2019-06-15T03:25:33.791Z,6.00
2019-06-15T03:26:33.797Z,5.70
2019-06-15T03:26:44.341Z,6.50
2019-06-15T03:27:33.809Z,6.00
2019-06-15T03:28:33.827Z,6.00
2019-06-15T03:29:13.388Z,6.50
2019-06-15T03:29:33.846Z,6.20
2019-06-15T03:30:33.933Z,6.30
2019-06-15T03:31:33.897Z,6.20
2019-06-15T03:31:42.473Z,6.53
2019-06-15T03:32:33.909Z,6.50
2019-06-15T03:33:33.934Z,6.50
2019-06-15T03:34:11.482Z,6.23
2019-06-15T03:34:33.953Z,6.60
2019-06-15T03:35:33.968Z,6.70
2019-06-15T03:36:33.995Z,6.40
2019-06-15T03:36:40.588Z,6.17
2019-06-15T03:37:34.008Z,6.40
2019-06-15T03:38:34.046Z,6.10
2019-06-15T03:39:09.574Z,6.50
2019-06-15T03:39:34.048Z,7.00
2019-06-15T03:40:34.195Z,6.20
2019-06-15T03:41:34.089Z,6.60
2019-06-15T03:41:38.547Z,6.93
2019-06-15T03:42:34.108Z,7.40
2019-06-15T03:43:34.130Z,6.60
2019-06-15T03:44:07.566Z,6.83
2019-06-15T03:44:34.346Z,6.20
2019-06-15T03:45:34.198Z,6.10
2019-06-15T03:46:34.185Z,5.90
2019-06-15T03:46:36.715Z,6.90
2019-06-15T03:47:34.236Z,6.60
2019-06-15T03:48:34.231Z,6.40
2019-06-15T03:49:05.622Z,6.93
2019-06-15T03:49:34.254Z,7.20
2019-06-15T03:50:34.266Z,6.10
2019-06-15T03:51:34.289Z,7.10
2019-06-15T03:51:34.571Z,7.27
2019-06-15T03:52:34.308Z,6.50
2019-06-15T03:53:34.326Z,6.50
2019-06-15T03:54:03.621Z,7.20
2019-06-15T03:54:34.372Z,6.30
2019-06-15T03:55:34.388Z,6.90
2019-06-15T03:56:32.597Z,7.00
2019-06-15T03:56:34.394Z,7.10
2019-06-15T03:57:34.415Z,7.10
2019-06-15T03:58:34.426Z,6.40
2019-06-15T03:59:01.588Z,7.00
2019-06-15T03:59:34.446Z,6.40
2019-06-15T04:00:34.465Z,6.50
2019-06-15T04:01:33.756Z,7.30
2019-06-15T04:01:34.486Z,6.80
2019-06-15T04:02:34.507Z,6.70
2019-06-15T04:03:34.531Z,6.30
2019-06-15T04:04:02.763Z,6.50
2019-06-15T04:04:34.546Z,6.50
2019-06-15T04:05:34.572Z,6.20
2019-06-15T04:06:34.588Z,6.30
2019-06-15T04:06:50.893Z,6.90
2019-06-15T04:07:34.606Z,6.70
2019-06-15T04:08:34.623Z,6.30
2019-06-15T04:09:19.780Z,7.07
2019-06-15T04:09:34.649Z,6.60
2019-06-15T04:10:34.664Z,6.80
2019-06-15T04:11:34.684Z,6.50
2019-06-15T04:11:48.681Z,6.93
2019-06-15T04:12:34.708Z,6.40
2019-06-15T04:13:34.731Z,6.90
2019-06-15T04:14:17.663Z,6.47
2019-06-15T04:14:34.743Z,6.00
2019-06-15T04:15:34.765Z,6.60
2019-06-15T04:16:34.892Z,6.30
2019-06-15T04:16:46.872Z,7.27
2019-06-15T04:17:34.803Z,7.20
2019-06-15T04:18:34.824Z,7.10
2019-06-15T04:19:15.866Z,7.27
2019-06-15T04:19:34.844Z,6.40
2019-06-15T04:20:34.862Z,6.70
2019-06-15T04:21:34.883Z,7.00
2019-06-15T04:21:44.739Z,6.67
2019-06-15T04:22:34.907Z,6.80
2019-06-15T04:23:34.942Z,7.10
2019-06-15T04:24:13.619Z,7.23
2019-06-15T04:24:34.959Z,7.10
2019-06-15T04:25:34.963Z,7.00
2019-06-15T04:26:36.265Z,6.90
2019-06-15T04:26:42.518Z,7.37
2019-06-15T04:27:35.049Z,6.80
2019-06-15T04:28:35.028Z,6.90
2019-06-15T04:29:11.513Z,6.80
2019-06-15T04:29:35.043Z,6.50
2019-06-15T04:30:35.064Z,6.80
2019-06-15T04:31:35.082Z,6.10
2019-06-15T04:31:40.503Z,6.70
2019-06-15T04:32:35.103Z,6.30
2019-06-15T04:33:35.137Z,6.90
2019-06-15T04:34:09.395Z,7.17
2019-06-15T04:34:35.150Z,6.50
2019-06-15T04:35:35.171Z,6.70
2019-06-15T04:36:35.197Z,6.50
2019-06-15T04:36:38.303Z,7.57
2019-06-15T04:37:35.216Z,6.50
2019-06-15T04:38:35.232Z,6.50
2019-06-15T04:39:07.293Z,7.03
2019-06-15T04:39:35.346Z,6.20
2019-06-15T04:40:35.273Z,6.30
2019-06-15T04:41:35.286Z,6.50
2019-06-15T04:41:36.163Z,6.20
2019-06-15T04:42:35.314Z,6.20
2019-06-15T04:43:35.336Z,6.90
2019-06-15T04:44:05.164Z,6.13
2019-06-15T04:44:35.355Z,6.00
2019-06-15T04:45:35.371Z,6.30
2019-06-15T04:46:34.046Z,6.77
2019-06-15T04:46:35.410Z,6.40
2019-06-15T04:47:35.411Z,6.90
2019-06-15T04:48:35.436Z,6.20
2019-06-15T04:49:02.994Z,7.73
2019-06-15T04:49:35.455Z,6.20
2019-06-15T04:50:35.469Z,6.50
2019-06-15T04:51:32.046Z,7.07
2019-06-15T04:51:35.493Z,6.60
2019-06-15T04:52:35.514Z,6.30
2019-06-15T04:53:35.542Z,6.40
2019-06-15T04:54:01.018Z,6.80
2019-06-15T04:54:35.552Z,7.10
2019-06-15T04:55:35.607Z,6.70
2019-06-15T04:56:30.019Z,7.17
2019-06-15T04:56:50.046Z,6.30
2019-06-15T04:57:35.616Z,7.00
2019-06-15T04:58:35.647Z,6.80
2019-06-15T04:58:59.007Z,7.07
2019-06-15T04:59:35.661Z,7.10
2019-06-15T05:00:35.684Z,7.00
2019-06-15T05:01:28.040Z,6.63
2019-06-15T05:01:35.709Z,6.50
2019-06-15T05:02:35.719Z,5.80
2019-06-15T05:03:35.744Z,5.90
2019-06-15T05:03:57.005Z,7.03
2019-06-15T05:04:35.761Z,6.20
2019-06-15T05:05:35.784Z,5.30
2019-06-15T05:06:25.886Z,6.53
2019-06-15T05:06:35.804Z,6.60
2019-06-15T05:07:35.836Z,6.30
2019-06-15T05:08:35.858Z,5.60
2019-06-15T05:08:54.772Z,6.33
2019-06-15T05:09:35.870Z,5.60
2019-06-15T05:10:35.955Z,5.70
2019-06-15T05:11:23.986Z,6.03
2019-06-15T05:11:35.926Z,5.60
2019-06-15T05:12:35.942Z,5.50
2019-06-15T05:13:35.992Z,5.70
2019-06-15T05:13:55.185Z,6.70
2019-06-15T05:14:35.983Z,5.70
2019-06-15T05:15:36.011Z,5.90
2019-06-15T05:16:24.118Z,5.90
2019-06-15T05:16:36.036Z,6.00
2019-06-15T05:17:36.052Z,5.80
2019-06-15T05:18:36.139Z,5.10
2019-06-15T05:18:53.191Z,6.47
2019-06-15T05:19:36.111Z,5.70
2019-06-15T05:20:36.116Z,5.60
2019-06-15T05:21:22.207Z,5.63
2019-06-15T05:21:36.165Z,5.10
2019-06-15T05:22:36.249Z,5.20
2019-06-15T05:23:36.234Z,5.60
2019-06-15T05:23:51.118Z,5.83
2019-06-15T05:24:36.210Z,5.70
2019-06-15T05:25:36.232Z,6.00
2019-06-15T05:26:20.084Z,6.40
2019-06-15T05:26:36.252Z,5.10
2019-06-15T05:27:36.291Z,5.80
2019-06-15T05:28:36.315Z,5.60
2019-06-15T05:28:49.161Z,6.43
2019-06-15T05:29:36.318Z,5.60
2019-06-15T05:30:36.363Z,6.00
2019-06-15T05:31:18.273Z,6.90
2019-06-15T05:31:36.367Z,6.00
2019-06-15T05:32:36.417Z,5.40
2019-06-15T05:33:36.409Z,5.50
2019-06-15T05:33:47.154Z,5.87
2019-06-15T05:34:36.433Z,6.10
2019-06-15T05:35:36.452Z,5.60
2019-06-15T05:36:18.409Z,5.77
2019-06-15T05:36:36.486Z,5.40
2019-06-15T05:37:36.496Z,5.70
2019-06-15T05:38:36.523Z,5.90
2019-06-15T05:38:47.328Z,6.27
2019-06-15T05:39:36.542Z,5.70
2019-06-15T05:40:36.576Z,5.60
2019-06-15T05:41:16.280Z,6.50
2019-06-15T05:41:36.583Z,6.30
2019-06-15T05:42:36.606Z,5.80
2019-06-15T05:43:36.631Z,5.40
2019-06-15T05:43:45.269Z,6.20
2019-06-15T05:44:36.653Z,5.50
2019-06-15T05:45:36.676Z,5.80
2019-06-15T05:46:14.150Z,6.27
2019-06-15T05:46:36.701Z,5.80
2019-06-15T05:47:36.722Z,5.80
2019-06-15T05:48:36.738Z,5.50
2019-06-15T05:48:43.064Z,6.13
2019-06-15T05:49:36.768Z,5.50
2019-06-15T05:50:36.790Z,5.60
2019-06-15T05:51:12.035Z,6.50
2019-06-15T05:51:36.806Z,5.60
2019-06-15T05:52:36.843Z,5.80
2019-06-15T05:53:36.883Z,5.90
2019-06-15T05:53:41.047Z,6.50
2019-06-15T05:54:36.884Z,5.80
2019-06-15T05:55:36.904Z,5.80
2019-06-15T05:56:09.916Z,6.40
2019-06-15T05:56:36.918Z,5.50
2019-06-15T05:57:37.046Z,6.40
2019-06-15T05:58:36.963Z,6.40
2019-06-15T05:58:38.926Z,6.00
2019-06-15T05:59:36.989Z,5.70
2019-06-15T06:00:37.007Z,5.50
2019-06-15T06:01:07.923Z,6.10
2019-06-15T06:01:37.036Z,6.10
2019-06-15T06:02:37.061Z,6.00
2019-06-15T06:03:36.912Z,6.40
2019-06-15T06:03:37.074Z,5.80
2019-06-15T06:04:37.113Z,5.90
2019-06-15T06:05:37.131Z,5.60
2019-06-15T06:06:05.907Z,6.47
2019-06-15T06:06:37.152Z,5.50
2019-06-15T06:07:37.175Z,5.60
2019-06-15T06:08:34.884Z,6.50
2019-06-15T06:08:37.204Z,6.60
2019-06-15T06:09:37.217Z,5.70
2019-06-15T06:10:37.247Z,5.70
2019-06-15T06:11:03.872Z,6.37
2019-06-15T06:11:37.262Z,5.70
2019-06-15T06:12:37.281Z,5.90
2019-06-15T06:13:32.867Z,6.73
2019-06-15T06:13:37.446Z,5.90
2019-06-15T06:14:37.331Z,5.90
2019-06-15T06:15:37.372Z,5.70
2019-06-15T06:16:01.945Z,6.37
2019-06-15T06:16:37.379Z,5.50
2019-06-15T06:17:37.401Z,6.20
2019-06-15T06:18:30.965Z,6.60
2019-06-15T06:18:37.433Z,5.80
2019-06-15T06:19:37.445Z,6.10
2019-06-15T06:20:37.478Z,6.10
2019-06-15T06:21:00.043Z,6.23
2019-06-15T06:21:37.500Z,5.60
2019-06-15T06:22:37.521Z,5.80
2019-06-15T06:23:29.053Z,6.70
2019-06-15T06:23:37.593Z,6.00
2019-06-15T06:24:37.565Z,5.60
2019-06-15T06:25:37.589Z,6.00
2019-06-15T06:25:58.084Z,6.37
2019-06-15T06:26:37.617Z,5.60
2019-06-15T06:27:37.633Z,5.40
2019-06-15T06:28:27.066Z,6.13
2019-06-15T06:28:37.663Z,5.90
2019-06-15T06:29:37.680Z,5.30
2019-06-15T06:30:37.704Z,5.50
2019-06-15T06:30:56.057Z,6.93
2019-06-15T06:31:37.759Z,5.00
2019-06-15T06:32:37.755Z,5.30
2019-06-15T06:33:25.014Z,6.37
2019-06-15T06:33:37.781Z,5.80
2019-06-15T06:34:37.815Z,5.80
2019-06-15T06:35:37.847Z,6.10
2019-06-15T06:35:53.881Z,6.23
2019-06-15T06:36:37.848Z,6.00
2019-06-15T06:37:37.870Z,6.20
2019-06-15T06:38:22.990Z,7.10
2019-06-15T06:38:37.898Z,5.60
2019-06-15T06:39:37.927Z,5.90
2019-06-15T06:40:37.945Z,5.60
2019-06-15T06:40:51.875Z,6.23
2019-06-15T06:41:38.015Z,5.40
2019-06-15T06:42:38.141Z,6.00
2019-06-15T06:43:20.767Z,6.17
2019-06-15T06:43:38.058Z,5.70
2019-06-15T06:44:38.081Z,5.60
2019-06-15T06:45:38.099Z,5.90
2019-06-15T06:45:49.776Z,6.37
2019-06-15T06:46:38.091Z,5.90
2019-06-15T06:47:38.114Z,5.70
2019-06-15T06:48:18.756Z,6.37
2019-06-15T06:48:38.140Z,5.60
2019-06-15T06:49:38.163Z,5.50
2019-06-15T06:50:41.176Z,5.30
2019-06-15T06:50:47.744Z,6.30
2019-06-15T06:51:38.662Z,5.90
2019-06-15T06:52:38.245Z,5.50
2019-06-15T06:53:16.639Z,6.50
2019-06-15T06:53:38.267Z,5.80
2019-06-15T06:54:38.300Z,6.10
2019-06-15T06:55:38.367Z,5.50
2019-06-15T06:55:45.729Z,6.20
2019-06-15T06:56:38.342Z,6.10
2019-06-15T06:57:51.235Z,5.10
2019-06-15T06:58:14.615Z,6.43
2019-06-15T06:58:38.393Z,5.10
2019-06-15T06:59:38.421Z,5.30
2019-06-15T07:00:38.462Z,4.90
2019-06-15T07:00:43.562Z,6.67
2019-06-15T07:01:38.469Z,5.90
2019-06-15T07:02:38.505Z,5.60
2019-06-15T07:03:12.513Z,6.63
2019-06-15T07:03:38.536Z,5.10
2019-06-15T07:04:38.552Z,6.00
2019-06-15T07:05:38.587Z,5.10
2019-06-15T07:05:42.206Z,6.53
2019-06-15T07:06:38.602Z,5.10
2019-06-15T07:07:38.632Z,4.70
2019-06-15T07:08:11.081Z,6.43
2019-06-15T07:08:38.708Z,5.00
2019-06-15T07:09:38.681Z,4.90
2019-06-15T07:10:38.741Z,4.90
2019-06-15T07:10:40.206Z,6.53
2019-06-15T07:11:38.751Z,5.90
2019-06-15T07:12:38.759Z,5.30
2019-06-15T07:13:09.303Z,6.40
2019-06-15T07:13:38.786Z,4.70
2019-06-15T07:14:38.810Z,5.20
2019-06-15T07:15:38.294Z,6.00
2019-06-15T07:15:38.842Z,4.80
2019-06-15T07:16:38.860Z,4.90
2019-06-15T07:17:38.893Z,10.00
2019-06-15T07:18:07.336Z,15.43
2019-06-15T07:18:39.052Z,15.40
2019-06-15T07:19:38.942Z,13.00
2019-06-15T07:20:36.281Z,6.60
2019-06-15T07:20:38.966Z,7.00
2019-06-15T07:21:39.099Z,5.60
2019-06-15T07:22:39.039Z,4.70
2019-06-15T07:23:05.167Z,6.23
2019-06-15T07:23:39.080Z,4.80
2019-06-15T07:24:39.231Z,5.00
2019-06-15T07:25:34.289Z,9.97
2019-06-15T07:25:39.320Z,6.60
2019-06-15T07:26:39.179Z,9.80
2019-06-15T07:27:39.145Z,9.80
2019-06-15T07:28:07.878Z,9.73
2019-06-15T07:28:39.438Z,7.30
2019-06-15T07:29:39.197Z,9.40
2019-06-15T07:30:33.886Z,6.13
2019-06-15T07:30:39.221Z,5.30
2019-06-15T07:31:39.245Z,4.80
2019-06-15T07:32:39.274Z,4.60
2019-06-15T07:33:02.984Z,5.90
2019-06-15T07:33:39.300Z,4.70
2019-06-15T07:34:39.328Z,4.60
2019-06-15T07:35:31.957Z,6.30
2019-06-15T07:35:39.355Z,5.20
2019-06-15T07:36:39.383Z,5.50
2019-06-15T07:37:39.404Z,4.90
2019-06-15T07:38:01.415Z,5.73
2019-06-15T07:38:39.459Z,4.60
2019-06-15T07:39:39.470Z,4.70
2019-06-15T07:40:30.450Z,5.27
2019-06-15T07:40:39.486Z,5.00
2019-06-15T07:41:39.512Z,4.90
2019-06-15T07:42:39.775Z,4.40
2019-06-15T07:42:59.351Z,5.83
2019-06-15T07:43:39.575Z,4.30
2019-06-15T07:44:39.603Z,4.60
2019-06-15T07:45:39.627Z,4.50
2019-06-15T07:45:47.380Z,5.13
2019-06-15T07:46:39.644Z,4.80
2019-06-15T07:47:39.684Z,4.60
2019-06-15T07:48:16.301Z,6.17
2019-06-15T07:48:39.698Z,4.80
2019-06-15T07:49:39.729Z,3.90
2019-06-15T07:50:39.764Z,4.80
2019-06-15T07:50:45.181Z,5.43
2019-06-15T07:51:39.793Z,4.30
2019-06-15T07:52:39.805Z,4.70
2019-06-15T07:53:14.173Z,6.27
2019-06-15T07:53:39.833Z,4.70
2019-06-15T07:54:39.865Z,5.30
2019-06-15T07:55:39.894Z,4.70
2019-06-15T07:55:43.191Z,6.00
2019-06-15T07:56:39.919Z,4.40
2019-06-15T07:57:39.952Z,4.80
2019-06-15T07:58:24.104Z,5.40
2019-06-15T07:58:39.989Z,4.50
2019-06-15T07:59:40.002Z,4.80
2019-06-15T08:00:40.033Z,4.80
2019-06-15T08:00:42.885Z,6.63
2019-06-15T08:01:40.081Z,4.60
2019-06-15T08:02:40.086Z,4.80
2019-06-15T08:03:11.863Z,6.63
2019-06-15T08:03:43.247Z,5.20
2019-06-15T08:04:40.149Z,4.90
2019-06-15T08:05:40.165Z,5.40
2019-06-15T08:05:40.962Z,5.87
2019-06-15T08:06:40.194Z,5.00
2019-06-15T08:07:40.217Z,6.80
2019-06-15T08:08:10.270Z,5.70
2019-06-15T08:08:40.240Z,5.80
2019-06-15T08:09:40.269Z,4.90
2019-06-15T08:10:39.466Z,6.83
2019-06-15T08:10:40.298Z,6.50
2019-06-15T08:11:40.324Z,4.80
2019-06-15T08:12:40.384Z,5.90
2019-06-15T08:13:08.459Z,6.20
2019-06-15T08:13:40.381Z,5.60
2019-06-15T08:14:40.403Z,4.80
2019-06-15T08:15:37.561Z,5.67
2019-06-15T08:15:40.446Z,4.20
2019-06-15T08:16:40.482Z,4.30
2019-06-15T08:17:40.481Z,4.40
2019-06-15T08:18:09.639Z,6.40
2019-06-15T08:18:40.568Z,5.00
2019-06-15T08:19:40.532Z,5.30
2019-06-15T08:20:37.601Z,7.57
2019-06-15T08:20:40.557Z,5.10
2019-06-15T08:21:40.606Z,6.40
2019-06-15T08:22:40.611Z,5.80
2019-06-15T08:23:06.773Z,8.37
2019-06-15T08:23:40.641Z,6.00
2019-06-15T08:24:40.764Z,6.00
2019-06-15T08:25:35.777Z,9.77
2019-06-15T08:25:40.686Z,6.20
2019-06-15T08:26:40.712Z,6.60
2019-06-15T08:27:40.749Z,7.20
2019-06-15T08:28:04.924Z,9.63
2019-06-15T08:28:40.868Z,7.40
2019-06-15T08:29:40.801Z,8.00
2019-06-15T08:30:40.821Z,8.00
2019-06-15T08:30:41.484Z,9.57
2019-06-15T08:31:40.874Z,7.70
2019-06-15T08:32:40.858Z,8.30
2019-06-15T08:33:10.654Z,10.37
2019-06-15T08:33:40.894Z,8.80
2019-06-15T08:34:40.907Z,10.00
2019-06-15T08:35:39.833Z,10.97
2019-06-15T08:35:40.940Z,8.80
2019-06-15T08:36:40.956Z,8.60
2019-06-15T08:37:40.988Z,8.10
2019-06-15T08:38:08.927Z,10.80
2019-06-15T08:38:41.006Z,8.40
2019-06-15T08:39:41.035Z,9.30
2019-06-15T08:40:38.076Z,10.90
2019-06-15T08:40:41.055Z,9.70
2019-06-15T08:41:41.095Z,9.60
2019-06-15T08:42:41.141Z,9.60
2019-06-15T08:43:08.458Z,10.17
2019-06-15T08:43:41.128Z,8.80
2019-06-15T08:44:41.293Z,10.30
2019-06-15T08:45:37.526Z,12.93
2019-06-15T08:45:41.176Z,11.00
2019-06-15T08:46:41.201Z,10.80
2019-06-15T08:47:41.270Z,10.60
2019-06-15T08:48:06.414Z,14.53
2019-06-15T08:48:41.252Z,12.10
2019-06-15T08:49:41.332Z,12.10
2019-06-15T08:50:35.739Z,13.73
2019-06-15T08:50:41.322Z,11.10
2019-06-15T08:51:41.335Z,12.10
2019-06-15T08:52:41.348Z,11.50
2019-06-15T08:53:04.723Z,14.87
2019-06-15T08:53:41.369Z,12.00
2019-06-15T08:54:41.435Z,12.00
2019-06-15T08:55:34.128Z,14.67
2019-06-15T08:55:41.476Z,11.50
2019-06-15T08:56:41.441Z,12.80
2019-06-15T08:57:41.461Z,12.80
2019-06-15T08:58:03.040Z,15.80
2019-06-15T08:58:54.759Z,12.40
2019-06-15T08:59:41.516Z,11.70
2019-06-15T09:00:32.025Z,13.97
2019-06-15T09:00:41.540Z,13.00
2019-06-15T09:01:41.566Z,12.00
2019-06-15T09:02:41.593Z,12.90
2019-06-15T09:03:00.985Z,15.57
2019-06-15T09:03:41.611Z,11.40
2019-06-15T09:04:41.676Z,13.10
2019-06-15T09:05:30.093Z,14.77
2019-06-15T09:05:41.651Z,12.40
2019-06-15T09:06:41.675Z,12.60
2019-06-15T09:07:41.699Z,13.00
2019-06-15T09:07:59.154Z,15.23
2019-06-15T09:08:41.749Z,12.10
2019-06-15T09:09:41.758Z,11.50
2019-06-15T09:10:28.101Z,12.17
2019-06-15T09:10:41.788Z,11.50
2019-06-15T09:11:41.803Z,11.80
2019-06-15T09:12:41.822Z,11.20
2019-06-15T09:12:57.051Z,13.63
2019-06-15T09:13:41.853Z,10.30
2019-06-15T09:14:41.903Z,10.00
2019-06-15T09:15:29.840Z,11.60
2019-06-15T09:15:41.898Z,11.00
2019-06-15T09:16:42.001Z,10.10
2019-06-15T09:17:41.940Z,11.70
2019-06-15T09:17:58.724Z,14.20
2019-06-15T09:18:41.985Z,10.70
2019-06-15T09:19:41.986Z,10.40
2019-06-15T09:20:27.719Z,14.17
2019-06-15T09:20:42.021Z,11.10
2019-06-15T09:21:42.043Z,11.90
2019-06-15T09:22:42.177Z,12.10
2019-06-15T09:22:56.721Z,14.83
2019-06-15T09:23:42.088Z,12.40
2019-06-15T09:24:42.100Z,11.60
2019-06-15T09:25:25.608Z,14.07
2019-06-15T09:25:42.126Z,11.80
2019-06-15T09:26:42.148Z,10.90
2019-06-15T09:27:42.189Z,11.30
2019-06-15T09:27:54.591Z,13.57